Strona główna
METAR-TAF:

METAR-TAF

Lotnisko :

Madison, Dakota Południowa, Stany Zjednoczone

Szerokość geograficzna: 44-00-59N, Długość geograficzna: 097-05-08W, wysokość: 524 m

Aktualna obserwacja pogody

Raport powstał 33 minut temu, godzina 17:15 UTC
Wiatr 11 kt od północno-północny zachód w porywach dochodzący do 15 kt
Temperatura 12°C
Wilgotność 44%
Ciśnienie 1004 hPa
Widzialność: 16.1 km
bezchmurnie

METAR: KMDS 111715Z AUTO 34011G15KT 10SM CLR 12/00 A2965 RMK AO2

czas: 11:48 (17:48 UTC)


TAF: brakujący

Obserwacja i prognoza pogody dla ponad 4000 lotnisk (raport METAR i TAF).

Dostępne stacje oznaczono żółtymi i czerwonymi punktami na mapie.

Najedź kursorem aby zobaczyć nazwę stacji.

Kliknij aby zobaczyć obserwacje i prognozy pogody.

Aby zmienić mapę: kliknij na zielony przycisk z czarnym krzyżykiem, aby powiększyć; na zielony przycisk z myślnikiem, aby pomniejszyć; na zielone strzałki, aby przejść do map sąsiednich.


METAR-TAF: